createdAt,value
2023-12-30T00:00:18.068Z,100045.09
2023-12-30T00:02:49.182Z,100039.34
2023-12-30T00:05:17.266Z,100040.31
2023-12-30T00:07:45.499Z,100033.72
2023-12-30T00:10:13.067Z,100047.88
2023-12-30T00:12:40.315Z,100039.75
2023-12-30T00:15:08.644Z,100028.34
2023-12-30T00:17:36.025Z,100038.31
2023-12-30T00:20:03.664Z,100047.63
2023-12-30T00:22:30.894Z,100048.41
2023-12-30T00:24:58.170Z,100038.03
2023-12-30T00:27:25.729Z,100017.84
2023-12-30T00:29:52.907Z,100024.59
2023-12-30T00:32:20.144Z,100018.88
2023-12-30T00:34:47.409Z,100021.53
2023-12-30T00:37:20.044Z,100019.16
2023-12-30T00:39:48.313Z,100027.41
2023-12-30T00:42:15.717Z,100024.00
2023-12-30T00:44:43.099Z,100032.41
2023-12-30T00:47:10.303Z,100042.63
2023-12-30T00:49:37.584Z,100041.06
2023-12-30T00:52:05.333Z,100036.94
2023-12-30T00:54:38.326Z,100031.34
2023-12-30T00:57:11.776Z,100036.97
2023-12-30T00:59:38.990Z,100036.16
2023-12-30T01:02:06.239Z,100027.78
2023-12-30T01:04:33.573Z,100022.81
2023-12-30T01:07:00.826Z,100021.97
2023-12-30T01:09:28.090Z,100028.59
2023-12-30T01:11:55.318Z,100030.38
2023-12-30T01:14:22.621Z,100029.38
2023-12-30T01:16:49.819Z,100038.03
2023-12-30T01:19:17.109Z,100043.00
2023-12-30T01:21:44.335Z,100044.72
2023-12-30T01:24:11.557Z,100048.31
2023-12-30T01:26:40.013Z,100060.41
2023-12-30T01:29:07.279Z,100067.16
2023-12-30T01:31:35.563Z,100066.00
2023-12-30T01:34:02.918Z,100074.53
2023-12-30T01:36:31.736Z,100079.50
2023-12-30T01:38:58.923Z,100085.28
2023-12-30T01:41:26.073Z,100083.09
2023-12-30T01:43:53.395Z,100077.91
2023-12-30T01:46:20.751Z,100066.97
2023-12-30T01:48:48.346Z,100079.31
2023-12-30T01:51:24.613Z,100080.09
2023-12-30T01:53:57.003Z,100078.19
2023-12-30T01:56:26.147Z,100092.22
2023-12-30T01:58:53.867Z,100091.31
2023-12-30T02:01:28.657Z,100094.53
2023-12-30T02:03:57.038Z,100097.19
2023-12-30T02:06:24.484Z,100107.69
2023-12-30T02:08:51.885Z,100110.97
2023-12-30T02:11:19.590Z,100121.84
2023-12-30T02:13:46.994Z,100115.13
2023-12-30T02:16:14.389Z,100123.31
2023-12-30T02:18:41.717Z,100118.56
2023-12-30T02:21:08.986Z,100128.41
2023-12-30T02:23:36.533Z,100128.19
2023-12-30T02:26:07.143Z,100126.56
2023-12-30T02:28:35.182Z,100125.78
2023-12-30T02:31:02.818Z,100130.91
2023-12-30T02:33:30.225Z,100124.03
2023-12-30T02:35:57.447Z,100138.25
2023-12-30T02:38:24.731Z,100135.88
2023-12-30T02:40:51.965Z,100147.22
2023-12-30T02:43:19.243Z,100139.38
2023-12-30T02:45:46.527Z,100142.66
2023-12-30T02:48:13.835Z,100142.44
2023-12-30T02:50:41.104Z,100145.22
2023-12-30T02:53:08.260Z,100145.94
2023-12-30T02:55:36.025Z,100152.50
2023-12-30T02:58:03.552Z,100144.03
2023-12-30T03:00:30.891Z,100152.00
2023-12-30T03:02:58.174Z,100153.53
2023-12-30T03:05:25.414Z,100163.25
2023-12-30T03:07:52.698Z,100160.06
2023-12-30T03:10:20.022Z,100168.00
2023-12-30T03:12:47.278Z,100164.25
2023-12-30T03:15:14.539Z,100180.41
2023-12-30T03:17:41.851Z,100182.97
2023-12-30T03:20:11.236Z,100183.25
2023-12-30T03:22:39.063Z,100181.69
2023-12-30T03:25:07.711Z,100176.56
2023-12-30T03:27:34.920Z,100177.56
2023-12-30T03:30:02.208Z,100180.41
2023-12-30T03:32:29.817Z,100189.53
2023-12-30T03:34:57.482Z,100192.72
2023-12-30T03:37:24.780Z,100198.53
2023-12-30T03:39:53.196Z,100195.75
2023-12-30T03:42:20.778Z,100200.03
2023-12-30T03:44:48.179Z,100204.16
2023-12-30T03:47:15.472Z,100199.06
2023-12-30T03:49:42.867Z,100204.03
2023-12-30T03:52:10.317Z,100216.19
2023-12-30T03:54:37.640Z,100216.31
2023-12-30T03:57:05.162Z,100221.94
2023-12-30T03:59:32.456Z,100218.09
2023-12-30T04:01:59.811Z,100220.66
2023-12-30T04:04:27.140Z,100227.34
2023-12-30T04:06:54.430Z,100230.47
2023-12-30T04:09:21.728Z,100234.38
2023-12-30T04:11:48.953Z,100241.84
2023-12-30T04:14:16.146Z,100246.13
2023-12-30T04:16:43.364Z,100244.97
2023-12-30T04:19:10.759Z,100246.69
2023-12-30T04:21:38.001Z,100250.09
2023-12-30T04:24:05.749Z,100248.25
2023-12-30T04:26:32.944Z,100263.03
2023-12-30T04:29:00.780Z,100263.69
2023-12-30T04:31:28.123Z,100261.00
2023-12-30T04:33:55.386Z,100265.16
2023-12-30T04:36:22.607Z,100264.28
2023-12-30T04:38:49.904Z,100271.53
2023-12-30T04:41:17.340Z,100268.81
2023-12-30T04:43:44.596Z,100278.75
2023-12-30T04:46:13.270Z,100271.00
2023-12-30T04:48:40.544Z,100271.94
2023-12-30T04:51:07.903Z,100267.34
2023-12-30T04:53:35.120Z,100265.72
2023-12-30T04:56:02.431Z,100266.94
2023-12-30T04:58:29.794Z,100269.53
2023-12-30T05:00:58.107Z,100270.53
2023-12-30T05:03:25.453Z,100271.22
2023-12-30T05:05:52.839Z,100271.53
2023-12-30T05:08:20.388Z,100276.75
2023-12-30T05:10:48.151Z,100275.66
2023-12-30T05:13:15.572Z,100298.13
2023-12-30T05:15:42.929Z,100296.50
2023-12-30T05:18:12.884Z,100307.56
2023-12-30T05:20:40.097Z,100312.91
2023-12-30T05:23:07.396Z,100316.63
2023-12-30T05:25:35.077Z,100320.78
2023-12-30T05:28:02.346Z,100319.59
2023-12-30T05:30:30.028Z,100323.31
2023-12-30T05:32:57.351Z,100320.91
2023-12-30T05:35:24.626Z,100306.59
2023-12-30T05:37:52.366Z,100305.50
2023-12-30T05:40:19.876Z,100313.94
2023-12-30T05:42:49.354Z,100323.25
2023-12-30T05:45:16.764Z,100312.53
2023-12-30T05:47:44.403Z,100319.66
2023-12-30T05:50:14.907Z,100323.69
2023-12-30T05:52:42.137Z,100332.47
2023-12-30T05:55:09.583Z,100334.19
2023-12-30T05:57:36.816Z,100323.69
2023-12-30T06:00:05.571Z,100327.00
2023-12-30T06:02:32.787Z,100330.41
2023-12-30T06:05:00.196Z,100333.50
2023-12-30T06:07:27.458Z,100335.00
2023-12-30T06:09:54.854Z,100340.34
2023-12-30T06:12:22.168Z,100346.34
2023-12-30T06:14:49.922Z,100352.00
2023-12-30T06:17:17.141Z,100353.72
2023-12-30T06:19:45.359Z,100347.44
2023-12-30T06:22:12.853Z,100359.88
2023-12-30T06:24:40.097Z,100358.94
2023-12-30T06:27:07.422Z,100362.28
2023-12-30T06:29:34.664Z,100373.94
2023-12-30T06:32:01.950Z,100367.41
2023-12-30T06:34:29.237Z,100368.81
2023-12-30T06:36:56.540Z,100371.69
2023-12-30T06:39:24.142Z,100377.38
2023-12-30T06:41:51.390Z,100373.94
2023-12-30T06:44:18.826Z,100380.88
2023-12-30T06:46:46.046Z,100389.97
2023-12-30T06:49:13.430Z,100385.78
2023-12-30T06:51:43.734Z,100393.69
2023-12-30T06:54:11.003Z,100390.22
2023-12-30T06:56:38.400Z,100404.31
2023-12-30T06:59:05.791Z,100408.88
2023-12-30T07:01:33.314Z,100408.31
2023-12-30T07:04:00.597Z,100417.50
2023-12-30T07:06:27.821Z,100410.88
2023-12-30T07:08:55.089Z,100417.50
2023-12-30T07:11:22.291Z,100420.44
2023-12-30T07:13:49.539Z,100419.22
2023-12-30T07:16:17.108Z,100427.53
2023-12-30T07:18:44.495Z,100435.63
2023-12-30T07:21:12.147Z,100433.22
2023-12-30T07:23:39.596Z,100437.25
2023-12-30T07:26:06.897Z,100439.91
2023-12-30T07:28:34.123Z,100430.72
2023-12-30T07:31:01.473Z,100432.44
2023-12-30T07:33:29.121Z,100438.81
2023-12-30T07:35:57.617Z,100441.44
2023-12-30T07:38:24.899Z,100440.41
2023-12-30T07:40:52.386Z,100439.16
2023-12-30T07:43:19.738Z,100439.91
2023-12-30T07:45:46.966Z,100450.63
2023-12-30T07:48:14.235Z,100449.09
2023-12-30T07:50:41.507Z,100457.34
2023-12-30T07:53:09.601Z,100447.38
2023-12-30T07:55:37.049Z,100457.56
2023-12-30T07:58:04.424Z,100461.84
2023-12-30T08:00:31.616Z,100455.75
2023-12-30T08:02:58.965Z,100456.78
2023-12-30T08:05:26.308Z,100465.34
2023-12-30T08:07:53.535Z,100464.81
2023-12-30T08:10:20.869Z,100470.88
2023-12-30T08:12:48.229Z,100471.50
2023-12-30T08:15:15.610Z,100466.09
2023-12-30T08:17:43.070Z,100467.88
2023-12-30T08:20:11.302Z,100467.34
2023-12-30T08:22:38.594Z,100475.50
2023-12-30T08:25:07.112Z,100476.69
2023-12-30T08:27:34.453Z,100478.66
2023-12-30T08:30:01.821Z,100477.94
2023-12-30T08:32:29.183Z,100485.31
2023-12-30T08:34:58.024Z,100472.97
2023-12-30T08:37:25.488Z,100470.00
2023-12-30T08:39:52.879Z,100473.25
2023-12-30T08:42:20.569Z,100471.88
2023-12-30T08:44:47.747Z,100475.94
2023-12-30T08:47:16.519Z,100474.84
2023-12-30T08:49:43.847Z,100475.91
2023-12-30T08:52:11.862Z,100482.00
2023-12-30T08:54:41.075Z,100458.44
2023-12-30T08:57:08.367Z,100485.78
2023-12-30T08:59:35.653Z,100495.63
2023-12-30T09:02:04.069Z,100499.13
2023-12-30T09:04:32.049Z,100493.38
2023-12-30T09:06:59.474Z,100504.44
2023-12-30T09:09:26.915Z,100507.56
2023-12-30T09:11:54.145Z,100516.56
2023-12-30T09:14:21.344Z,100513.84
2023-12-30T09:16:48.736Z,100525.28
2023-12-30T09:19:16.147Z,100529.50
2023-12-30T09:21:43.382Z,100523.09
2023-12-30T09:24:10.686Z,100524.38
2023-12-30T09:26:38.277Z,100530.06
2023-12-30T09:29:05.608Z,100537.59
2023-12-30T09:31:32.836Z,100539.09
2023-12-30T09:34:00.299Z,100550.69
2023-12-30T09:36:29.356Z,100564.00
2023-12-30T09:38:56.631Z,100562.78
2023-12-30T09:41:27.476Z,100565.66
2023-12-30T09:43:55.851Z,100563.56
2023-12-30T09:46:25.186Z,100564.72
2023-12-30T09:48:55.945Z,100558.03
2023-12-30T09:51:23.547Z,100559.94
2023-12-30T09:53:50.816Z,100557.56
2023-12-30T09:56:20.138Z,100567.69
2023-12-30T09:58:47.661Z,100582.59
2023-12-30T10:01:15.696Z,100578.44
2023-12-30T10:03:43.687Z,100585.00
2023-12-30T10:06:15.446Z,100581.75
2023-12-30T10:08:43.734Z,100586.88
2023-12-30T10:11:12.087Z,100576.75
2023-12-30T10:13:40.004Z,100580.63
2023-12-30T10:16:07.796Z,100587.47
2023-12-30T10:18:39.890Z,100588.41
2023-12-30T10:21:08.080Z,100577.34
2023-12-30T10:23:35.969Z,100581.66
2023-12-30T10:26:04.644Z,100585.22
2023-12-30T10:28:32.010Z,100598.72
2023-12-30T10:31:07.723Z,100590.47
2023-12-30T10:33:37.168Z,100609.47
2023-12-30T10:36:08.660Z,100592.63
2023-12-30T10:38:39.634Z,100590.34
2023-12-30T10:41:06.856Z,100591.63
2023-12-30T10:43:34.220Z,100588.19
2023-12-30T10:46:04.202Z,100598.25
2023-12-30T10:48:38.850Z,100606.91
2023-12-30T10:51:07.451Z,100599.47
2023-12-30T10:53:45.666Z,100602.75
2023-12-30T10:56:24.939Z,100597.63
2023-12-30T10:58:55.575Z,100612.72
2023-12-30T11:01:23.359Z,100598.78
2023-12-30T11:03:50.692Z,100610.09
2023-12-30T11:06:34.087Z,100598.06
2023-12-30T11:09:12.165Z,100603.06
2023-12-30T11:11:57.468Z,100606.50
2023-12-30T11:14:25.579Z,100600.06
2023-12-30T11:16:53.027Z,100598.84
2023-12-30T11:19:32.560Z,100597.94
2023-12-30T11:22:03.052Z,100604.22
2023-12-30T11:24:30.983Z,100604.22
2023-12-30T11:26:58.984Z,100611.25
2023-12-30T11:29:30.472Z,100615.34
2023-12-30T11:32:00.317Z,100610.44
2023-12-30T11:34:28.199Z,100611.25
2023-12-30T11:37:00.294Z,100601.53
2023-12-30T11:39:33.133Z,100601.06
2023-12-30T11:42:02.291Z,100597.63
2023-12-30T11:44:29.884Z,100588.91
2023-12-30T11:46:57.958Z,100590.53
2023-12-30T11:49:27.187Z,100587.13
2023-12-30T11:52:06.030Z,100595.50
2023-12-30T11:54:34.320Z,100589.09
2023-12-30T11:57:02.213Z,100589.75
2023-12-30T11:59:30.493Z,100576.19
2023-12-30T12:02:15.426Z,100583.47
2023-12-30T12:04:43.829Z,100586.78
2023-12-30T12:07:12.227Z,100579.41
2023-12-30T12:09:41.596Z,100590.91
2023-12-30T12:12:09.925Z,100598.78
2023-12-30T12:14:38.115Z,100583.94
2023-12-30T12:17:08.228Z,100592.34
2023-12-30T12:19:38.788Z,100588.94
2023-12-30T12:22:06.468Z,100588.75
2023-12-30T12:24:33.811Z,100592.19
2023-12-30T12:27:01.299Z,100585.75
2023-12-30T12:29:28.552Z,100599.97
2023-12-30T12:31:57.236Z,100595.38
2023-12-30T12:34:26.928Z,100599.44
2023-12-30T12:36:54.844Z,100604.41
2023-12-30T12:39:22.023Z,100608.00
2023-12-30T12:41:49.724Z,100601.44
2023-12-30T12:44:17.320Z,100609.72
2023-12-30T12:46:44.649Z,100604.25
2023-12-30T12:49:12.542Z,100608.53
2023-12-30T12:51:40.408Z,100606.56
2023-12-30T12:54:07.838Z,100610.31
2023-12-30T12:56:35.686Z,100605.16
2023-12-30T12:59:02.878Z,100604.50
2023-12-30T13:01:30.363Z,100604.44
2023-12-30T13:03:59.428Z,100592.63
2023-12-30T13:06:26.822Z,100588.75
2023-12-30T13:08:57.147Z,100591.06
2023-12-30T13:11:28.287Z,100592.28
2023-12-30T13:13:56.269Z,100596.97
2023-12-30T13:16:25.331Z,100583.50
2023-12-30T13:18:54.133Z,100587.50
2023-12-30T13:21:21.396Z,100578.72
2023-12-30T13:23:51.135Z,100582.16
2023-12-30T13:26:19.717Z,100584.09
2023-12-30T13:28:47.333Z,100591.22
2023-12-30T13:31:19.010Z,100597.22
2023-12-30T13:33:46.609Z,100603.47
2023-12-30T13:36:14.050Z,100598.47
2023-12-30T13:38:44.751Z,100609.78
2023-12-30T13:41:12.054Z,100607.09
2023-12-30T13:43:39.335Z,100608.34
2023-12-30T13:46:24.912Z,100603.75
2023-12-30T13:49:10.375Z,100602.75
2023-12-30T13:51:43.484Z,100594.78
2023-12-30T13:54:11.107Z,100597.19
2023-12-30T13:56:43.175Z,100596.06
2023-12-30T13:59:12.258Z,100595.03
2023-12-30T14:01:39.990Z,100590.34
2023-12-30T14:04:08.774Z,100593.63
2023-12-30T14:06:41.279Z,100599.31
2023-12-30T14:09:27.433Z,100599.88
2023-12-30T14:12:01.980Z,100604.00
2023-12-30T14:14:36.402Z,100605.66
2023-12-30T14:17:03.713Z,100604.84
2023-12-30T14:19:31.022Z,100610.59
2023-12-30T14:21:58.463Z,100610.34
2023-12-30T14:24:25.770Z,100615.91
2023-12-30T14:26:53.027Z,100619.13
2023-12-30T14:29:20.363Z,100626.81
2023-12-30T14:31:48.692Z,100625.00
2023-12-30T14:34:16.115Z,100618.94
2023-12-30T14:36:43.398Z,100627.31
2023-12-30T14:39:16.654Z,100616.38
2023-12-30T14:41:43.882Z,100627.38
2023-12-30T14:44:11.081Z,100625.91
2023-12-30T14:46:38.480Z,100626.91
2023-12-30T14:49:08.693Z,100624.09
2023-12-30T14:51:36.226Z,100634.69
2023-12-30T14:54:05.062Z,100633.53
2023-12-30T14:56:38.415Z,100630.25
2023-12-30T14:59:05.630Z,100626.22
2023-12-30T15:01:33.372Z,100642.88
2023-12-30T15:04:03.182Z,100624.56
2023-12-30T15:06:31.295Z,100633.94
2023-12-30T15:08:59.901Z,100625.22
2023-12-30T15:11:28.696Z,100623.28
2023-12-30T15:13:56.313Z,100627.94
2023-12-30T15:16:23.727Z,100632.88
2023-12-30T15:18:51.184Z,100627.88
2023-12-30T15:21:18.441Z,100629.56
2023-12-30T15:23:45.693Z,100637.53
2023-12-30T15:26:12.889Z,100642.28
2023-12-30T15:28:40.222Z,100637.69
2023-12-30T15:31:08.054Z,100647.50
2023-12-30T15:33:35.661Z,100648.34
2023-12-30T15:36:06.292Z,100651.81
2023-12-30T15:38:33.577Z,100663.88
2023-12-30T15:41:01.465Z,100659.22
2023-12-30T15:43:30.847Z,100653.97
2023-12-30T15:45:58.933Z,100652.88
2023-12-30T15:48:26.416Z,100652.25
2023-12-30T15:50:54.012Z,100654.81
2023-12-30T15:53:21.340Z,100660.75
2023-12-30T15:55:49.098Z,100650.31
2023-12-30T15:58:16.524Z,100647.50
2023-12-30T16:00:43.776Z,100659.22
2023-12-30T16:03:12.865Z,100647.63
2023-12-30T16:05:41.746Z,100652.63
2023-12-30T16:08:10.821Z,100654.28
2023-12-30T16:10:38.233Z,100651.75
2023-12-30T16:13:08.235Z,100653.41
2023-12-30T16:15:37.883Z,100646.66
2023-12-30T16:18:07.530Z,100650.28
2023-12-30T16:20:35.008Z,100650.72
2023-12-30T16:23:05.255Z,100652.22
2023-12-30T16:25:33.217Z,100647.16
2023-12-30T16:28:00.907Z,100647.00
2023-12-30T16:30:28.447Z,100648.19
2023-12-30T16:32:55.938Z,100651.47
2023-12-30T16:35:23.260Z,100648.84
2023-12-30T16:37:52.965Z,100641.28
2023-12-30T16:40:21.287Z,100658.03
2023-12-30T16:42:48.649Z,100652.84
2023-12-30T16:45:16.035Z,100654.84
2023-12-30T16:47:43.909Z,100650.59
2023-12-30T16:50:11.236Z,100653.34
2023-12-30T16:52:38.852Z,100654.13
2023-12-30T16:55:12.017Z,100650.13
2023-12-30T16:57:39.579Z,100652.41
2023-12-30T17:00:10.918Z,100647.63
2023-12-30T17:02:38.881Z,100645.41
2023-12-30T17:05:06.957Z,100641.88
2023-12-30T17:07:34.681Z,100643.59
2023-12-30T17:10:02.711Z,100655.06
2023-12-30T17:12:30.041Z,100646.03
2023-12-30T17:14:57.230Z,100648.28
2023-12-30T17:17:24.435Z,100649.16
2023-12-30T17:19:51.600Z,100652.56
2023-12-30T17:22:18.881Z,100656.69
2023-12-30T17:24:46.168Z,100656.06
2023-12-30T17:27:13.580Z,100658.56
2023-12-30T17:29:40.982Z,100662.00
2023-12-30T17:32:10.615Z,100657.72
2023-12-30T17:34:37.939Z,100667.22
2023-12-30T17:37:05.372Z,100658.25
2023-12-30T17:39:32.607Z,100665.09
2023-12-30T17:42:02.048Z,100665.88
2023-12-30T17:44:30.147Z,100663.41
2023-12-30T17:46:57.679Z,100661.84
2023-12-30T17:49:25.189Z,100656.84
2023-12-30T17:51:52.456Z,100660.44
2023-12-30T17:54:19.683Z,100661.41
2023-12-30T17:56:46.876Z,100657.81
2023-12-30T17:59:14.092Z,100651.25
2023-12-30T18:01:41.961Z,100656.47
2023-12-30T18:04:12.641Z,100648.44
2023-12-30T18:06:39.959Z,100654.69
2023-12-30T18:09:07.220Z,100649.53
2023-12-30T18:11:37.345Z,100646.75
2023-12-30T18:14:04.536Z,100646.16
2023-12-30T18:16:31.809Z,100640.47
2023-12-30T18:18:59.201Z,100639.16
2023-12-30T18:21:26.457Z,100637.84
2023-12-30T18:23:53.666Z,100640.88
2023-12-30T18:26:21.321Z,100638.75
2023-12-30T18:28:51.457Z,100644.69
2023-12-30T18:31:18.681Z,100641.72
2023-12-30T18:33:46.564Z,100641.66
2023-12-30T18:36:13.812Z,100631.81
2023-12-30T18:38:41.369Z,100644.53
2023-12-30T18:41:08.591Z,100642.41
2023-12-30T18:43:35.930Z,100646.78
2023-12-30T18:46:03.345Z,100646.19
2023-12-30T18:48:30.670Z,100654.13
2023-12-30T18:50:58.047Z,100645.88
2023-12-30T18:53:25.261Z,100651.09
2023-12-30T18:55:53.051Z,100658.00
2023-12-30T18:58:21.070Z,100655.31
2023-12-30T19:00:50.263Z,100646.78
2023-12-30T19:03:17.522Z,100650.09
2023-12-30T19:05:44.848Z,100651.16
2023-12-30T19:08:12.370Z,100645.72
2023-12-30T19:10:39.609Z,100644.16
2023-12-30T19:13:07.374Z,100636.44
2023-12-30T19:15:34.849Z,100636.44
2023-12-30T19:18:02.348Z,100636.44
2023-12-30T19:20:29.759Z,100633.84
2023-12-30T19:22:56.984Z,100630.56
2023-12-30T19:25:24.344Z,100636.50
2023-12-30T19:27:52.667Z,100631.16
2023-12-30T19:30:19.929Z,100629.88
2023-12-30T19:32:47.515Z,100626.94
2023-12-30T19:35:15.178Z,100628.97
2023-12-30T19:37:44.154Z,100622.47
2023-12-30T19:40:12.109Z,100620.28
2023-12-30T19:42:40.141Z,100625.00
2023-12-30T19:45:11.250Z,100625.38
2023-12-30T19:47:40.318Z,100620.47
2023-12-30T19:50:08.220Z,100626.94
2023-12-30T19:52:35.407Z,100634.25
2023-12-30T19:55:03.758Z,100626.69
2023-12-30T19:57:31.450Z,100619.81
2023-12-30T19:59:58.867Z,100607.59
2023-12-30T20:02:26.074Z,100617.25
2023-12-30T20:04:53.314Z,100615.41
2023-12-30T20:07:20.578Z,100610.72
2023-12-30T20:09:47.796Z,100615.53
2023-12-30T20:12:14.971Z,100619.28
2023-12-30T20:14:42.164Z,100614.03
2023-12-30T20:17:09.334Z,100614.03
2023-12-30T20:19:37.087Z,100607.34
2023-12-30T20:22:04.472Z,100611.69
2023-12-30T20:24:31.699Z,100611.47
2023-12-30T20:26:59.225Z,100611.31
2023-12-30T20:29:26.482Z,100612.25
2023-12-30T20:31:57.039Z,100612.38
2023-12-30T20:34:25.563Z,100597.28
2023-12-30T20:36:53.766Z,100607.34
2023-12-30T20:39:20.950Z,100608.44
2023-12-30T20:41:48.292Z,100606.22
2023-12-30T20:44:15.495Z,100602.66
2023-12-30T20:46:43.986Z,100599.47
2023-12-30T20:49:11.395Z,100597.44
2023-12-30T20:51:38.621Z,100596.97
2023-12-30T20:54:05.908Z,100602.41
2023-12-30T20:56:33.204Z,100600.19
2023-12-30T20:59:00.405Z,100604.97
2023-12-30T21:01:30.774Z,100596.47
2023-12-30T21:03:58.852Z,100597.44
2023-12-30T21:06:28.140Z,100589.81
2023-12-30T21:08:55.343Z,100597.66
2023-12-30T21:11:22.882Z,100591.84
2023-12-30T21:13:50.276Z,100586.25
2023-12-30T21:16:18.570Z,100588.00
2023-12-30T21:18:47.624Z,100597.81
2023-12-30T21:21:14.941Z,100598.91
2023-12-30T21:23:42.187Z,100590.88
2023-12-30T21:26:09.550Z,100583.72
2023-12-30T21:28:38.302Z,100587.28
2023-12-30T21:31:05.567Z,100583.66
2023-12-30T21:33:32.947Z,100576.56
2023-12-30T21:36:00.531Z,100571.69
2023-12-30T21:38:28.340Z,100566.50
2023-12-30T21:40:55.812Z,100563.91
2023-12-30T21:43:23.418Z,100559.34
2023-12-30T21:45:52.584Z,100569.69
2023-12-30T21:48:20.240Z,100565.78
2023-12-30T21:50:47.580Z,100560.25
2023-12-30T21:53:14.876Z,100556.84
2023-12-30T21:55:43.597Z,100549.75
2023-12-30T21:58:10.939Z,100550.47
2023-12-30T22:00:40.689Z,100557.06
2023-12-30T22:03:08.560Z,100555.97
2023-12-30T22:05:36.388Z,100555.97
2023-12-30T22:08:04.082Z,100558.31
2023-12-30T22:10:32.205Z,100553.94
2023-12-30T22:12:59.480Z,100550.50
2023-12-30T22:15:26.947Z,100543.03
2023-12-30T22:17:54.237Z,100541.72
2023-12-30T22:20:21.545Z,100542.97
2023-12-30T22:22:48.764Z,100544.97
2023-12-30T22:25:16.061Z,100530.09
2023-12-30T22:27:43.265Z,100531.34
2023-12-30T22:30:11.114Z,100532.53
2023-12-30T22:32:38.393Z,100534.91
2023-12-30T22:35:14.139Z,100534.38
2023-12-30T22:37:42.979Z,100524.28
2023-12-30T22:40:10.865Z,100535.38
2023-12-30T22:42:39.086Z,100522.56
2023-12-30T22:45:07.407Z,100522.78
2023-12-30T22:47:36.798Z,100520.59
2023-12-30T22:50:07.969Z,100510.31
2023-12-30T22:52:37.001Z,100510.19
2023-12-30T22:55:04.822Z,100510.16
2023-12-30T22:57:32.176Z,100508.13
2023-12-30T23:00:00.780Z,100501.06
2023-12-30T23:02:27.987Z,100500.06
2023-12-30T23:04:55.298Z,100504.88
2023-12-30T23:07:22.586Z,100495.78
2023-12-30T23:09:49.800Z,100498.88
2023-12-30T23:12:17.503Z,100496.31
2023-12-30T23:14:44.960Z,100495.19
2023-12-30T23:17:15.775Z,100496.16
2023-12-30T23:19:44.409Z,100502.19
2023-12-30T23:22:11.888Z,100499.19
2023-12-30T23:24:39.418Z,100499.16
2023-12-30T23:27:06.610Z,100494.31
2023-12-30T23:29:34.258Z,100494.59
2023-12-30T23:32:01.492Z,100496.81
2023-12-30T23:34:38.546Z,100485.09
2023-12-30T23:37:10.305Z,100479.75
2023-12-30T23:39:37.548Z,100478.75
2023-12-30T23:42:05.243Z,100467.34
2023-12-30T23:44:32.522Z,100480.56
2023-12-30T23:46:59.722Z,100476.19
2023-12-30T23:49:26.934Z,100465.34
2023-12-30T23:51:54.132Z,100463.81
2023-12-30T23:54:21.342Z,100461.34
2023-12-30T23:56:48.524Z,100464.09
2023-12-30T23:59:18.336Z,100460.66
